createdAt,value
2019-03-27T00:00:24.758Z,17.30
2019-03-27T00:01:24.744Z,17.60
2019-03-27T00:02:24.737Z,19.20
2019-03-27T00:03:24.737Z,19.50
2019-03-27T00:04:24.716Z,23.10
2019-03-27T00:05:24.701Z,19.80
2019-03-27T00:06:24.685Z,17.20
2019-03-27T00:07:24.691Z,22.20
2019-03-27T00:08:24.667Z,22.20
2019-03-27T00:09:24.669Z,19.20
2019-03-27T00:10:24.698Z,19.90
2019-03-27T00:11:24.645Z,18.90
2019-03-27T00:12:24.620Z,20.30
2019-03-27T00:13:24.616Z,20.50
2019-03-27T00:14:24.611Z,17.20
2019-03-27T00:15:24.588Z,20.40
2019-03-27T00:16:24.583Z,21.80
2019-03-27T00:17:24.568Z,15.00
2019-03-27T00:18:24.561Z,19.30
2019-03-27T00:19:24.589Z,21.30
2019-03-27T00:20:24.561Z,27.90
2019-03-27T00:21:24.524Z,26.80
2019-03-27T00:22:24.518Z,19.10
2019-03-27T00:23:24.510Z,24.60
2019-03-27T00:24:24.491Z,27.20
2019-03-27T00:25:24.492Z,22.20
2019-03-27T00:26:24.470Z,28.10
2019-03-27T00:27:24.471Z,24.90
2019-03-27T00:28:24.452Z,22.80
2019-03-27T00:29:24.442Z,24.70
2019-03-27T00:30:24.470Z,23.50
2019-03-27T00:31:24.429Z,29.50
2019-03-27T00:32:24.442Z,23.40
2019-03-27T00:33:24.422Z,27.90
2019-03-27T00:34:24.384Z,26.20
2019-03-27T00:35:24.378Z,23.60
2019-03-27T00:36:24.363Z,28.30
2019-03-27T00:37:24.352Z,20.40
2019-03-27T00:38:24.351Z,26.60
2019-03-27T00:39:24.345Z,22.70
2019-03-27T00:40:24.318Z,23.20
2019-03-27T00:41:24.308Z,24.70
2019-03-27T00:42:24.331Z,19.80
2019-03-27T00:43:24.286Z,19.80
2019-03-27T00:44:24.275Z,18.30
2019-03-27T00:45:26.853Z,19.40
2019-03-27T00:46:24.261Z,24.20
2019-03-27T00:47:24.242Z,20.00
2019-03-27T00:48:24.250Z,21.40
2019-03-27T00:49:24.224Z,22.30
2019-03-27T00:50:24.217Z,20.80
2019-03-27T00:51:24.199Z,20.10
2019-03-27T00:52:24.198Z,20.10
2019-03-27T00:53:24.250Z,19.80
2019-03-27T00:54:24.178Z,18.70
2019-03-27T00:55:24.161Z,20.80
2019-03-27T00:56:24.157Z,22.10
2019-03-27T00:57:24.137Z,21.00
2019-03-27T00:58:24.127Z,19.90
2019-03-27T00:59:24.130Z,19.50
2019-03-27T01:00:24.118Z,22.90
2019-03-27T01:01:24.092Z,23.70
2019-03-27T01:02:24.086Z,22.90
2019-03-27T01:03:24.075Z,23.00
2019-03-27T01:04:24.059Z,25.90
2019-03-27T01:05:24.063Z,25.70
2019-03-27T01:06:24.043Z,18.80
2019-03-27T01:07:24.032Z,23.60
2019-03-27T01:08:24.016Z,22.40
2019-03-27T01:09:24.039Z,19.50
2019-03-27T01:10:23.993Z,18.70
2019-03-27T01:11:23.986Z,24.30
2019-03-27T01:12:23.973Z,18.70
2019-03-27T01:13:23.967Z,20.40
2019-03-27T01:14:23.965Z,26.20
2019-03-27T01:15:23.964Z,18.90
2019-03-27T01:16:23.934Z,20.20
2019-03-27T01:17:23.926Z,18.50
2019-03-27T01:18:23.909Z,18.80
2019-03-27T01:19:23.925Z,18.60
2019-03-27T01:20:23.890Z,18.50
2019-03-27T01:21:23.909Z,17.60
2019-03-27T01:22:23.870Z,15.50
2019-03-27T01:23:23.864Z,18.60
2019-03-27T01:24:23.843Z,20.00
2019-03-27T01:25:23.836Z,21.10
2019-03-27T01:26:23.823Z,18.10
2019-03-27T01:27:23.832Z,22.70
2019-03-27T01:28:23.798Z,16.00
2019-03-27T01:29:23.793Z,24.40
2019-03-27T01:30:23.779Z,17.50
2019-03-27T01:31:23.772Z,19.50
2019-03-27T01:32:23.790Z,17.70
2019-03-27T01:33:23.749Z,16.50
2019-03-27T01:34:23.738Z,20.90
2019-03-27T01:35:23.723Z,19.90
2019-03-27T01:36:23.723Z,15.60
2019-03-27T01:37:23.714Z,17.60
2019-03-27T01:38:23.700Z,16.90
2019-03-27T01:39:23.680Z,17.10
2019-03-27T01:40:23.675Z,20.30
2019-03-27T01:41:23.662Z,19.10
2019-03-27T01:42:23.706Z,19.20
2019-03-27T01:43:23.640Z,20.60
2019-03-27T01:44:23.624Z,19.00
2019-03-27T01:45:23.629Z,19.00
2019-03-27T01:46:23.606Z,18.80
2019-03-27T01:47:23.592Z,20.70
2019-03-27T01:48:23.613Z,18.90
2019-03-27T01:49:23.576Z,19.50
2019-03-27T01:50:23.564Z,21.80
2019-03-27T01:51:23.557Z,20.50
2019-03-27T01:52:23.560Z,24.30
2019-03-27T01:53:23.534Z,20.40
2019-03-27T01:54:23.530Z,19.50
2019-03-27T01:55:23.537Z,17.30
2019-03-27T01:56:23.496Z,16.60
2019-03-27T01:57:23.489Z,20.60
2019-03-27T01:58:23.475Z,19.20
2019-03-27T01:59:23.477Z,21.70
2019-03-27T02:00:23.457Z,17.30
2019-03-27T02:01:23.443Z,18.30
2019-03-27T02:02:23.431Z,18.30
2019-03-27T02:03:23.426Z,21.80
2019-03-27T02:04:23.424Z,24.60
2019-03-27T02:05:23.397Z,17.50
2019-03-27T02:06:23.394Z,19.10
2019-03-27T02:07:23.387Z,22.20
2019-03-27T02:08:23.367Z,18.80
2019-03-27T02:09:23.399Z,21.60
2019-03-27T02:10:23.344Z,18.60
2019-03-27T02:11:23.341Z,24.50
2019-03-27T02:12:23.329Z,18.90
2019-03-27T02:13:23.313Z,25.10
2019-03-27T02:14:23.303Z,20.10
2019-03-27T02:15:23.301Z,22.50
2019-03-27T02:16:23.285Z,19.90
2019-03-27T02:17:23.273Z,22.80
2019-03-27T02:18:23.260Z,16.50
2019-03-27T02:19:23.249Z,18.70
2019-03-27T02:20:23.276Z,18.40
2019-03-27T02:21:23.234Z,21.50
2019-03-27T02:22:23.219Z,20.90
2019-03-27T02:23:23.208Z,19.20
2019-03-27T02:24:23.197Z,18.30
2019-03-27T02:25:23.192Z,18.70
2019-03-27T02:26:23.186Z,17.20
2019-03-27T02:27:23.164Z,17.70
2019-03-27T02:28:23.154Z,18.80
2019-03-27T02:29:23.140Z,16.20
2019-03-27T02:30:23.150Z,19.90
2019-03-27T02:31:23.144Z,18.70
2019-03-27T02:32:23.116Z,16.40
2019-03-27T02:33:23.096Z,20.80
2019-03-27T02:34:23.086Z,20.60
2019-03-27T02:35:23.090Z,18.70
2019-03-27T02:36:23.107Z,18.30
2019-03-27T02:37:23.059Z,19.10
2019-03-27T02:38:23.050Z,25.10
2019-03-27T02:39:23.040Z,22.10
2019-03-27T02:40:23.023Z,20.80
2019-03-27T02:41:23.010Z,21.40
2019-03-27T02:42:23.009Z,22.30
2019-03-27T02:43:23.015Z,20.80
2019-03-27T02:44:22.995Z,20.60
2019-03-27T02:45:22.965Z,27.10
2019-03-27T02:46:25.246Z,20.20
2019-03-27T02:47:22.950Z,23.40
2019-03-27T02:48:22.934Z,25.40
2019-03-27T02:49:22.933Z,22.50
2019-03-27T02:50:22.914Z,24.90
2019-03-27T02:51:22.924Z,21.90
2019-03-27T02:52:22.902Z,23.30
2019-03-27T02:53:22.890Z,23.70
2019-03-27T02:54:22.895Z,21.60
2019-03-27T02:55:22.863Z,23.40
2019-03-27T02:56:22.856Z,24.10
2019-03-27T02:57:22.839Z,20.90
2019-03-27T02:58:22.827Z,22.70
2019-03-27T02:59:22.841Z,21.70
2019-03-27T03:00:22.813Z,25.80
2019-03-27T03:01:22.796Z,23.30
2019-03-27T03:02:22.781Z,23.50
2019-03-27T03:03:22.779Z,23.50
2019-03-27T03:04:22.763Z,24.60
2019-03-27T03:05:22.770Z,24.30
2019-03-27T03:06:22.742Z,24.10
2019-03-27T03:07:22.750Z,24.60
2019-03-27T03:08:22.716Z,26.00
2019-03-27T03:09:22.707Z,23.30
2019-03-27T03:10:22.709Z,20.30
2019-03-27T03:11:22.695Z,21.40
2019-03-27T03:12:22.679Z,22.60
2019-03-27T03:13:22.669Z,26.20
2019-03-27T03:14:22.654Z,22.70
2019-03-27T03:15:22.663Z,24.00
2019-03-27T03:16:22.649Z,25.30
2019-03-27T03:17:22.625Z,20.50
2019-03-27T03:18:22.615Z,24.50
2019-03-27T03:19:22.607Z,26.60
2019-03-27T03:20:22.610Z,21.60
2019-03-27T03:21:22.593Z,23.40
2019-03-27T03:22:22.570Z,25.00
2019-03-27T03:23:22.562Z,20.10
2019-03-27T03:24:22.548Z,21.20
2019-03-27T03:25:22.533Z,24.00
2019-03-27T03:26:22.565Z,23.50
2019-03-27T03:27:22.517Z,24.70
2019-03-27T03:28:22.499Z,23.20
2019-03-27T03:29:22.493Z,24.30
2019-03-27T03:30:22.480Z,25.40
2019-03-27T03:31:22.479Z,20.90
2019-03-27T03:32:22.474Z,20.50
2019-03-27T03:33:22.453Z,24.40
2019-03-27T03:34:22.440Z,27.30
2019-03-27T03:35:22.424Z,24.60
2019-03-27T03:36:22.438Z,23.50
2019-03-27T03:37:22.402Z,22.80
2019-03-27T03:38:22.395Z,25.50
2019-03-27T03:39:22.385Z,23.90
2019-03-27T03:40:22.386Z,21.00
2019-03-27T03:41:22.359Z,24.80
2019-03-27T03:42:22.355Z,21.50
2019-03-27T03:43:22.364Z,23.40
2019-03-27T03:44:22.333Z,23.90
2019-03-27T03:45:22.316Z,23.50
2019-03-27T03:46:22.305Z,24.50
2019-03-27T03:47:22.330Z,22.80
2019-03-27T03:48:22.293Z,25.10
2019-03-27T03:49:22.270Z,25.50
2019-03-27T03:50:22.265Z,22.90
2019-03-27T03:51:22.255Z,26.00
2019-03-27T03:52:22.256Z,24.30
2019-03-27T03:53:22.282Z,26.30
2019-03-27T03:54:22.221Z,24.10
2019-03-27T03:55:22.211Z,26.30
2019-03-27T03:56:22.210Z,25.20
2019-03-27T03:57:22.189Z,24.60
2019-03-27T03:58:22.179Z,23.40
2019-03-27T03:59:22.178Z,22.70
2019-03-27T04:00:22.156Z,29.10
2019-03-27T04:01:22.153Z,26.90
2019-03-27T04:02:22.137Z,28.60
2019-03-27T04:03:22.146Z,29.20
2019-03-27T04:04:22.116Z,25.20
2019-03-27T04:05:22.102Z,25.10
2019-03-27T04:06:22.088Z,27.00
2019-03-27T04:07:22.078Z,30.50
2019-03-27T04:08:22.098Z,26.70
2019-03-27T04:09:22.064Z,28.50
2019-03-27T04:10:22.045Z,28.50
2019-03-27T04:11:22.038Z,26.50
2019-03-27T04:12:22.023Z,27.80
2019-03-27T04:13:22.012Z,25.80
2019-03-27T04:14:22.064Z,27.70
2019-03-27T04:15:21.998Z,30.80
2019-03-27T04:16:21.984Z,28.70
2019-03-27T04:17:21.975Z,30.30
2019-03-27T04:18:21.965Z,29.80
2019-03-27T04:19:21.987Z,28.90
2019-03-27T04:20:21.944Z,27.90
2019-03-27T04:21:21.930Z,29.60
2019-03-27T04:22:21.924Z,30.20
2019-03-27T04:23:21.915Z,29.80
2019-03-27T04:24:21.897Z,29.90
2019-03-27T04:25:21.910Z,28.90
2019-03-27T04:26:21.878Z,29.50
2019-03-27T04:27:21.859Z,30.90
2019-03-27T04:28:21.901Z,30.20
2019-03-27T04:29:21.838Z,28.90
2019-03-27T04:30:21.832Z,30.80
2019-03-27T04:31:21.851Z,28.90
2019-03-27T04:32:21.811Z,27.50
2019-03-27T04:33:21.809Z,28.30
2019-03-27T04:34:21.794Z,26.40
2019-03-27T04:35:21.776Z,31.00
2019-03-27T04:36:21.767Z,26.90
2019-03-27T04:37:21.791Z,29.30
2019-03-27T04:38:21.746Z,28.80
2019-03-27T04:39:21.729Z,27.80
2019-03-27T04:40:21.741Z,28.00
2019-03-27T04:41:21.720Z,29.90
2019-03-27T04:42:21.721Z,31.40
2019-03-27T04:43:21.685Z,30.60
2019-03-27T04:44:21.680Z,28.50
2019-03-27T04:45:21.670Z,27.90
2019-03-27T04:46:21.657Z,33.10
2019-03-27T04:47:32.074Z,32.60
2019-03-27T04:48:22.678Z,27.50
2019-03-27T04:49:21.624Z,27.30
2019-03-27T04:50:21.620Z,30.10
2019-03-27T04:51:21.609Z,30.10
2019-03-27T04:52:21.590Z,29.40
2019-03-27T04:53:21.617Z,25.00
2019-03-27T04:54:21.571Z,27.30
2019-03-27T04:55:21.562Z,27.00
2019-03-27T04:56:21.547Z,25.70
2019-03-27T04:57:21.535Z,24.60
2019-03-27T04:58:21.535Z,23.40
2019-03-27T04:59:21.556Z,28.00
2019-03-27T05:00:21.510Z,28.70
2019-03-27T05:01:21.493Z,28.40
2019-03-27T05:02:21.489Z,23.70
2019-03-27T05:03:21.479Z,28.10
2019-03-27T05:04:21.474Z,23.50
2019-03-27T05:05:21.457Z,23.30
2019-03-27T05:06:21.441Z,22.60
2019-03-27T05:07:21.436Z,22.70
2019-03-27T05:08:21.424Z,22.70
2019-03-27T05:09:21.423Z,24.30
2019-03-27T05:10:21.403Z,22.50
2019-03-27T05:11:21.387Z,24.50
2019-03-27T05:12:21.383Z,21.00
2019-03-27T05:13:21.367Z,24.50
2019-03-27T05:14:21.377Z,23.60
2019-03-27T05:15:21.362Z,20.70
2019-03-27T05:16:21.353Z,20.50
2019-03-27T05:17:21.326Z,24.90
2019-03-27T05:18:21.314Z,20.10
2019-03-27T05:19:21.307Z,23.30
2019-03-27T05:20:21.337Z,20.70
2019-03-27T05:21:21.292Z,21.30
2019-03-27T05:22:21.269Z,20.90
2019-03-27T05:23:21.268Z,21.50
2019-03-27T05:24:21.248Z,24.80
2019-03-27T05:25:21.249Z,21.80
2019-03-27T05:26:21.263Z,19.10
2019-03-27T05:27:21.215Z,20.20
2019-03-27T05:28:21.205Z,22.40
2019-03-27T05:29:21.194Z,19.90
2019-03-27T05:30:21.184Z,23.30
2019-03-27T05:31:21.186Z,21.80
2019-03-27T05:32:21.168Z,20.20
2019-03-27T05:33:21.151Z,20.20
2019-03-27T05:34:21.142Z,19.50
2019-03-27T05:35:21.125Z,19.70
2019-03-27T05:36:21.128Z,22.40
2019-03-27T05:37:21.117Z,18.80
2019-03-27T05:38:21.096Z,19.60
2019-03-27T05:39:21.102Z,21.40
2019-03-27T05:40:21.069Z,21.90
2019-03-27T05:41:21.070Z,22.00
2019-03-27T05:42:21.076Z,20.70
2019-03-27T05:43:21.039Z,20.10
2019-03-27T05:44:21.030Z,25.10
2019-03-27T05:45:21.016Z,20.60
2019-03-27T05:46:21.007Z,21.30
2019-03-27T05:47:21.000Z,25.80
2019-03-27T05:48:21.005Z,22.20
2019-03-27T05:49:20.970Z,22.60
2019-03-27T05:50:20.969Z,22.70
2019-03-27T05:51:20.950Z,21.00
2019-03-27T05:52:20.944Z,22.70
2019-03-27T05:53:20.962Z,23.90
2019-03-27T05:54:20.919Z,27.20
2019-03-27T05:55:20.913Z,24.30
2019-03-27T05:56:20.899Z,26.20
2019-03-27T05:57:20.891Z,24.90
2019-03-27T05:58:20.915Z,24.80
2019-03-27T05:59:20.870Z,28.80
2019-03-27T06:00:20.855Z,25.70
2019-03-27T06:01:20.848Z,28.00
2019-03-27T06:02:20.837Z,26.50
2019-03-27T06:03:20.828Z,26.10
2019-03-27T06:04:20.842Z,23.30
2019-03-27T06:05:20.812Z,23.60
2019-03-27T06:06:20.790Z,24.50
2019-03-27T06:07:20.781Z,26.10
2019-03-27T06:08:20.765Z,28.00
2019-03-27T06:09:20.753Z,22.70
2019-03-27T06:10:20.752Z,25.00
2019-03-27T06:11:20.768Z,29.10
2019-03-27T06:12:20.749Z,24.90
2019-03-27T06:13:20.723Z,23.70
2019-03-27T06:14:20.709Z,27.00
2019-03-27T06:15:20.711Z,26.20
2019-03-27T06:16:20.680Z,30.30
2019-03-27T06:17:20.674Z,26.80
2019-03-27T06:18:20.693Z,26.40
2019-03-27T06:19:20.654Z,24.90
2019-03-27T06:20:20.646Z,29.20
2019-03-27T06:21:20.638Z,28.40
2019-03-27T06:22:20.625Z,24.20
2019-03-27T06:23:20.615Z,24.40
2019-03-27T06:24:20.605Z,24.60
2019-03-27T06:25:20.593Z,21.80
2019-03-27T06:26:20.573Z,27.90
2019-03-27T06:27:20.561Z,26.80
2019-03-27T06:28:20.586Z,24.10
2019-03-27T06:29:20.539Z,28.70
2019-03-27T06:30:20.532Z,29.30
2019-03-27T06:31:20.533Z,28.90
2019-03-27T06:32:20.513Z,25.70
2019-03-27T06:33:20.499Z,29.20
2019-03-27T06:34:20.528Z,29.90
2019-03-27T06:35:20.474Z,28.00
2019-03-27T06:36:20.469Z,21.60
2019-03-27T06:37:20.460Z,30.80
2019-03-27T06:38:20.441Z,31.90
2019-03-27T06:39:20.429Z,28.20
2019-03-27T06:40:20.431Z,27.40
2019-03-27T06:41:20.446Z,28.80
2019-03-27T06:42:20.403Z,30.10
2019-03-27T06:43:20.396Z,29.60
2019-03-27T06:44:20.380Z,31.30
2019-03-27T06:45:20.369Z,32.50
2019-03-27T06:46:20.351Z,33.60
2019-03-27T06:47:20.358Z,29.50
2019-03-27T06:48:26.141Z,31.20
2019-03-27T06:49:21.320Z,33.10
2019-03-27T06:50:20.321Z,28.50
2019-03-27T06:51:20.311Z,29.80
2019-03-27T06:52:20.348Z,28.50
2019-03-27T06:53:20.278Z,31.10
2019-03-27T06:54:20.273Z,31.50
2019-03-27T06:55:20.249Z,28.80
2019-03-27T06:56:20.248Z,31.70
2019-03-27T06:57:20.241Z,31.10
2019-03-27T06:58:20.218Z,28.30
2019-03-27T06:59:20.209Z,25.10
2019-03-27T07:00:20.195Z,30.60
2019-03-27T07:01:20.200Z,29.90
2019-03-27T07:02:20.173Z,28.00
2019-03-27T07:03:20.167Z,26.90
2019-03-27T07:04:20.177Z,26.70
2019-03-27T07:05:20.149Z,27.90
2019-03-27T07:06:20.132Z,32.70
2019-03-27T07:07:20.140Z,27.50
2019-03-27T07:08:20.116Z,26.00
2019-03-27T07:09:20.100Z,29.60
2019-03-27T07:10:20.096Z,27.40
2019-03-27T07:11:20.081Z,30.50
2019-03-27T07:12:21.382Z,29.30
2019-03-27T07:13:20.062Z,30.30
2019-03-27T07:14:20.082Z,26.10
2019-03-27T07:15:20.038Z,26.60
2019-03-27T07:16:20.028Z,25.10
2019-03-27T07:17:20.022Z,26.10
2019-03-27T07:18:20.034Z,24.70
2019-03-27T07:19:19.986Z,29.90
2019-03-27T07:20:19.976Z,24.60
2019-03-27T07:21:19.965Z,26.60
2019-03-27T07:22:19.965Z,29.00
2019-03-27T07:23:19.950Z,28.80
2019-03-27T07:24:19.951Z,28.40
2019-03-27T07:25:19.922Z,25.60
2019-03-27T07:26:19.927Z,27.70
2019-03-27T07:27:19.920Z,27.20
2019-03-27T07:28:19.907Z,29.30
2019-03-27T07:29:19.882Z,30.10
2019-03-27T07:30:19.882Z,26.30
2019-03-27T07:31:19.861Z,24.20
2019-03-27T07:32:19.844Z,31.70
2019-03-27T07:33:19.851Z,25.60
2019-03-27T07:34:19.826Z,25.20
2019-03-27T07:35:19.833Z,22.10
2019-03-27T07:36:19.804Z,24.70
2019-03-27T07:37:19.789Z,24.30
2019-03-27T07:38:19.784Z,27.60
2019-03-27T07:39:19.772Z,27.10
2019-03-27T07:40:19.794Z,26.00
2019-03-27T07:41:19.785Z,28.90
2019-03-27T07:42:19.741Z,21.50
2019-03-27T07:43:19.725Z,26.00
2019-03-27T07:44:19.720Z,21.30
2019-03-27T07:45:19.716Z,23.80
2019-03-27T07:46:19.693Z,22.60
2019-03-27T07:47:19.693Z,26.10
2019-03-27T07:48:19.670Z,23.50
2019-03-27T07:49:19.663Z,21.40
2019-03-27T07:50:19.657Z,24.10
2019-03-27T07:51:19.648Z,23.50
2019-03-27T07:52:19.636Z,20.60
2019-03-27T07:53:22.332Z,22.80
2019-03-27T07:54:19.604Z,21.70
2019-03-27T07:55:20.050Z,19.10
2019-03-27T07:56:19.599Z,20.00
2019-03-27T07:57:19.589Z,21.00
2019-03-27T07:58:19.595Z,23.20
2019-03-27T07:59:19.576Z,19.80
2019-03-27T08:00:19.570Z,24.20
2019-03-27T08:01:19.531Z,20.60
2019-03-27T08:02:19.544Z,23.20
2019-03-27T08:03:19.521Z,18.40
2019-03-27T08:04:19.499Z,16.70
2019-03-27T08:05:19.487Z,17.60
2019-03-27T08:06:19.473Z,21.70
2019-03-27T08:07:26.842Z,19.90
2019-03-27T08:08:20.470Z,19.60
2019-03-27T08:09:19.445Z,22.10
2019-03-27T08:10:19.433Z,25.10
2019-03-27T08:11:19.445Z,17.70
2019-03-27T08:12:19.413Z,18.80
2019-03-27T08:13:19.414Z,19.20
2019-03-27T08:14:19.383Z,15.10
2019-03-27T08:15:19.377Z,16.40
2019-03-27T08:16:19.366Z,15.20
2019-03-27T08:17:19.353Z,19.70
2019-03-27T08:18:19.342Z,17.10
2019-03-27T08:19:19.363Z,17.00
2019-03-27T08:20:19.317Z,15.70
2019-03-27T08:21:19.308Z,18.60
2019-03-27T08:22:19.299Z,18.70
2019-03-27T08:23:19.288Z,12.90
2019-03-27T08:24:19.277Z,13.60
2019-03-27T08:25:19.300Z,16.90
2019-03-27T08:26:19.275Z,17.50
2019-03-27T08:27:19.238Z,18.00
2019-03-27T08:28:19.235Z,15.60
2019-03-27T08:29:19.215Z,14.40
2019-03-27T08:30:19.211Z,18.10
2019-03-27T08:31:19.198Z,16.60
2019-03-27T08:32:19.182Z,13.30
2019-03-27T08:33:19.170Z,14.60
2019-03-27T08:34:19.165Z,14.30
2019-03-27T08:35:19.165Z,19.40
2019-03-27T08:36:19.154Z,17.70
2019-03-27T08:37:19.136Z,18.90
2019-03-27T08:38:19.122Z,17.00
2019-03-27T08:39:19.129Z,16.50
2019-03-27T08:40:19.100Z,15.50
2019-03-27T08:41:19.139Z,15.10
2019-03-27T08:42:19.078Z,17.30
2019-03-27T08:43:21.577Z,18.50
2019-03-27T08:44:19.054Z,17.50
2019-03-27T08:45:19.041Z,23.30
2019-03-27T08:46:19.029Z,17.70
2019-03-27T08:47:19.063Z,18.20
2019-03-27T08:48:19.021Z,18.50
2019-03-27T08:49:22.331Z,18.10
2019-03-27T08:50:18.985Z,19.00
2019-03-27T08:51:18.977Z,15.80
2019-03-27T08:52:18.969Z,18.50
2019-03-27T08:53:18.959Z,20.10
2019-03-27T08:54:18.937Z,18.60
2019-03-27T08:55:18.927Z,17.90
2019-03-27T08:56:18.915Z,16.30
2019-03-27T08:57:18.912Z,17.50
2019-03-27T08:58:18.895Z,17.10
2019-03-27T08:59:18.891Z,19.00
2019-03-27T09:00:21.326Z,21.50
2019-03-27T09:01:18.864Z,21.20
2019-03-27T09:02:18.867Z,17.40
2019-03-27T09:03:18.859Z,18.80
2019-03-27T09:04:18.834Z,19.80
2019-03-27T09:05:18.831Z,16.10
2019-03-27T09:06:32.812Z,15.30
2019-03-27T09:07:19.823Z,16.90
2019-03-27T09:08:18.789Z,15.40
2019-03-27T09:09:18.774Z,18.10
2019-03-27T09:10:18.821Z,15.00
2019-03-27T09:11:18.760Z,17.80
2019-03-27T09:12:18.757Z,18.30
2019-03-27T09:13:18.730Z,16.20
2019-03-27T09:14:18.728Z,21.10
2019-03-27T09:15:18.730Z,19.00
2019-03-27T09:16:18.713Z,19.20
2019-03-27T09:17:18.692Z,16.40
2019-03-27T09:18:18.683Z,17.30
2019-03-27T09:19:18.672Z,18.10
2019-03-27T09:20:18.657Z,16.30
2019-03-27T09:21:18.664Z,18.50
2019-03-27T09:22:18.637Z,16.30
2019-03-27T09:23:18.629Z,18.00
2019-03-27T09:24:18.619Z,16.70
2019-03-27T09:25:18.626Z,14.50
2019-03-27T09:26:18.608Z,18.10
2019-03-27T09:27:18.581Z,19.70
2019-03-27T09:28:18.569Z,20.10
2019-03-27T09:29:18.568Z,18.00
2019-03-27T09:30:18.549Z,13.40
2019-03-27T09:31:18.587Z,22.00
2019-03-27T09:32:18.534Z,18.30
2019-03-27T09:33:18.516Z,19.60
2019-03-27T09:34:18.508Z,18.00
2019-03-27T09:35:18.502Z,15.90
2019-03-27T09:36:18.495Z,18.80
2019-03-27T09:37:18.485Z,16.10
2019-03-27T09:38:18.478Z,20.20
2019-03-27T09:39:18.451Z,16.40
2019-03-27T09:40:18.443Z,14.90
2019-03-27T09:41:21.351Z,18.00
2019-03-27T09:42:18.435Z,15.20
2019-03-27T09:43:18.420Z,16.30
2019-03-27T09:44:18.406Z,19.50
2019-03-27T09:45:18.392Z,14.20
2019-03-27T09:46:18.385Z,20.10
2019-03-27T09:47:18.371Z,23.20
2019-03-27T09:48:18.375Z,13.10
2019-03-27T09:49:18.353Z,16.70
2019-03-27T09:50:18.335Z,14.60
2019-03-27T09:51:18.335Z,14.80
2019-03-27T09:52:18.318Z,18.30
2019-03-27T09:53:18.311Z,15.80
2019-03-27T09:54:18.294Z,15.70
2019-03-27T09:55:18.291Z,15.40
2019-03-27T09:56:19.587Z,12.30
2019-03-27T09:57:18.263Z,15.40
2019-03-27T09:58:18.267Z,15.90
2019-03-27T09:59:18.241Z,19.00
2019-03-27T10:00:18.231Z,17.30
2019-03-27T10:01:18.241Z,15.70
2019-03-27T10:02:18.206Z,17.00
2019-03-27T10:03:18.450Z,14.30
2019-03-27T10:04:18.193Z,16.50
2019-03-27T10:05:18.179Z,21.10
2019-03-27T10:06:18.170Z,11.50
2019-03-27T10:07:18.149Z,14.90
2019-03-27T10:08:18.139Z,14.70
2019-03-27T10:09:18.134Z,13.30
2019-03-27T10:10:18.114Z,14.20
2019-03-27T10:11:18.109Z,13.30
2019-03-27T10:12:18.101Z,12.80
2019-03-27T10:13:18.090Z,17.50
2019-03-27T10:14:18.087Z,14.80
2019-03-27T10:15:18.065Z,21.30
2019-03-27T10:16:18.054Z,15.30
2019-03-27T10:17:18.039Z,18.90
2019-03-27T10:18:18.027Z,18.50
2019-03-27T10:19:18.049Z,19.80
2019-03-27T10:20:18.015Z,18.20
2019-03-27T10:21:18.001Z,15.90
2019-03-27T10:22:17.986Z,15.00
2019-03-27T10:23:17.985Z,23.90
2019-03-27T10:24:17.967Z,18.60
2019-03-27T10:25:17.975Z,20.40
2019-03-27T10:26:17.938Z,17.40
2019-03-27T10:27:17.947Z,16.70
2019-03-27T10:28:17.915Z,16.40
2019-03-27T10:29:17.908Z,19.10
2019-03-27T10:30:17.895Z,11.50
2019-03-27T10:31:17.896Z,17.30
2019-03-27T10:32:17.875Z,15.80
2019-03-27T10:33:17.866Z,14.10
2019-03-27T10:34:17.852Z,20.70
2019-03-27T10:35:17.840Z,16.60
2019-03-27T10:36:17.839Z,16.80
2019-03-27T10:37:17.839Z,13.50
2019-03-27T10:38:17.805Z,15.70
2019-03-27T10:39:17.803Z,15.60
2019-03-27T10:40:17.787Z,13.40
2019-03-27T10:41:17.817Z,12.50
2019-03-27T10:42:17.760Z,15.70
2019-03-27T10:43:17.763Z,14.70
2019-03-27T10:44:17.796Z,16.40
2019-03-27T10:45:17.725Z,15.90
2019-03-27T10:46:17.723Z,14.10
2019-03-27T10:47:17.728Z,14.00
2019-03-27T10:48:17.700Z,15.60
2019-03-27T10:49:17.680Z,15.70
2019-03-27T10:50:18.257Z,14.70
2019-03-27T10:51:17.665Z,17.00
2019-03-27T10:52:17.656Z,15.70
2019-03-27T10:53:17.638Z,12.60
2019-03-27T10:54:17.627Z,14.00
2019-03-27T10:55:17.619Z,17.70
2019-03-27T10:56:17.607Z,14.90
2019-03-27T10:57:17.602Z,15.10
2019-03-27T10:58:17.613Z,18.40
2019-03-27T10:59:17.569Z,16.90
2019-03-27T11:00:17.564Z,20.10
2019-03-27T11:01:17.556Z,16.90
2019-03-27T11:02:17.545Z,15.60
2019-03-27T11:03:17.950Z,14.10
2019-03-27T11:04:17.525Z,15.10
2019-03-27T11:05:17.505Z,20.70
2019-03-27T11:06:17.494Z,14.40
2019-03-27T11:07:17.499Z,15.10
2019-03-27T11:08:17.480Z,12.00
2019-03-27T11:09:17.467Z,14.80
2019-03-27T11:10:17.455Z,15.60
2019-03-27T11:11:17.444Z,15.50
2019-03-27T11:12:17.430Z,18.80
2019-03-27T11:13:17.455Z,12.70
2019-03-27T11:14:17.409Z,13.40
2019-03-27T11:15:17.398Z,15.10
2019-03-27T11:16:17.389Z,15.40
2019-03-27T11:17:17.377Z,12.80
2019-03-27T11:18:17.401Z,15.10
2019-03-27T11:19:17.356Z,13.70
2019-03-27T11:20:30.001Z,16.90
2019-03-27T11:21:18.329Z,14.00
2019-03-27T11:22:17.321Z,15.80
2019-03-27T11:23:17.321Z,16.30
2019-03-27T11:24:17.320Z,14.30
2019-03-27T11:25:17.291Z,15.00
2019-03-27T11:26:17.286Z,18.70
2019-03-27T11:27:17.264Z,14.90
2019-03-27T11:28:17.251Z,15.20
2019-03-27T11:29:17.291Z,15.60
2019-03-27T11:30:17.232Z,15.10
2019-03-27T11:31:17.228Z,16.40
2019-03-27T11:32:17.211Z,15.90
2019-03-27T11:33:17.204Z,15.30
2019-03-27T11:34:17.265Z,16.70
2019-03-27T11:35:17.189Z,15.60
2019-03-27T11:36:17.171Z,15.10
2019-03-27T11:37:17.164Z,16.40
2019-03-27T11:38:17.146Z,19.80
2019-03-27T11:39:17.139Z,16.40
2019-03-27T11:40:17.163Z,18.90
2019-03-27T11:41:17.116Z,15.10
2019-03-27T11:42:17.101Z,16.70
2019-03-27T11:43:17.098Z,16.00
2019-03-27T11:44:17.087Z,16.10
2019-03-27T11:45:17.074Z,19.10
2019-03-27T11:46:17.069Z,19.00
2019-03-27T11:47:17.060Z,17.90
2019-03-27T11:48:17.041Z,16.20
2019-03-27T11:49:17.050Z,18.60
2019-03-27T11:50:17.251Z,16.20
2019-03-27T11:51:17.010Z,21.10
2019-03-27T11:52:17.000Z,18.30
2019-03-27T11:53:16.985Z,20.10
2019-03-27T11:54:16.971Z,20.00
2019-03-27T11:55:16.965Z,15.70
2019-03-27T11:56:16.963Z,15.90
2019-03-27T11:57:16.946Z,19.70
2019-03-27T11:58:16.931Z,16.30
2019-03-27T11:59:16.919Z,19.90
2019-03-27T12:00:16.913Z,15.50
2019-03-27T12:01:16.912Z,17.90
2019-03-27T12:02:16.920Z,17.10
2019-03-27T12:03:16.873Z,19.50
2019-03-27T12:04:16.860Z,17.10
2019-03-27T12:05:16.853Z,16.30
2019-03-27T12:06:16.836Z,19.90
2019-03-27T12:07:16.828Z,20.40
2019-03-27T12:08:16.818Z,16.40
2019-03-27T12:09:16.814Z,16.80
2019-03-27T12:10:16.798Z,16.30
2019-03-27T12:11:16.789Z,17.70
2019-03-27T12:12:16.803Z,18.30
2019-03-27T12:13:16.773Z,19.90
2019-03-27T12:14:16.754Z,16.40
2019-03-27T12:15:16.756Z,16.20
2019-03-27T12:16:16.726Z,16.00
2019-03-27T12:17:16.721Z,15.00
2019-03-27T12:18:16.718Z,15.50
2019-03-27T12:19:16.693Z,17.40
2019-03-27T12:20:16.688Z,19.70
2019-03-27T12:21:16.678Z,17.90
2019-03-27T12:22:16.663Z,15.20
2019-03-27T12:23:16.685Z,17.20
2019-03-27T12:24:16.645Z,14.30
2019-03-27T12:25:16.638Z,16.50
2019-03-27T12:26:16.617Z,15.70
2019-03-27T12:27:16.610Z,13.30
2019-03-27T12:28:16.656Z,14.30
2019-03-27T12:29:18.193Z,16.10
2019-03-27T12:30:16.571Z,13.00
2019-03-27T12:31:16.572Z,14.70
2019-03-27T12:32:16.557Z,15.70
2019-03-27T12:33:16.549Z,12.60
2019-03-27T12:34:16.539Z,18.20
2019-03-27T12:35:16.549Z,13.30
2019-03-27T12:36:16.514Z,11.70
2019-03-27T12:37:16.496Z,13.90
2019-03-27T12:38:16.497Z,12.70
2019-03-27T12:39:16.508Z,9.80
2019-03-27T12:40:16.468Z,10.60
2019-03-27T12:41:16.452Z,13.50
2019-03-27T12:42:16.446Z,14.40
2019-03-27T12:43:16.434Z,11.90
2019-03-27T12:44:16.425Z,12.10
2019-03-27T12:45:16.426Z,12.70
2019-03-27T12:46:16.399Z,13.00
2019-03-27T12:47:16.394Z,15.20
2019-03-27T12:48:16.383Z,13.10
2019-03-27T12:49:16.367Z,15.20
2019-03-27T12:50:16.368Z,13.30
2019-03-27T12:51:16.345Z,11.20
2019-03-27T12:52:16.330Z,9.70